createdAt,value
2022-08-05T00:00:03.663Z,25.80
2022-08-05T00:01:25.225Z,25.92
2022-08-05T00:02:07.765Z,25.82
2022-08-05T00:03:04.635Z,25.75
2022-08-05T00:04:03.667Z,25.85
2022-08-05T00:05:05.916Z,25.91
2022-08-05T00:06:22.098Z,25.83
2022-08-05T00:07:27.019Z,25.87
2022-08-05T00:08:04.741Z,25.82
2022-08-05T00:09:03.576Z,25.87
2022-08-05T00:10:03.563Z,25.82
2022-08-05T00:11:03.588Z,25.82
2022-08-05T00:12:03.559Z,25.87
2022-08-05T00:13:03.543Z,25.85
2022-08-05T00:14:12.887Z,25.87
2022-08-05T00:15:54.404Z,25.73
2022-08-05T00:16:04.517Z,25.80
2022-08-05T00:17:03.507Z,25.75
2022-08-05T00:18:03.503Z,25.76
2022-08-05T00:19:03.530Z,25.75
2022-08-05T00:20:03.480Z,25.69
2022-08-05T00:21:03.450Z,25.61
2022-08-05T00:22:03.448Z,25.64
2022-08-05T00:23:12.917Z,25.64
2022-08-05T00:24:09.846Z,25.60
2022-08-05T00:25:03.451Z,25.51
2022-08-05T00:26:03.429Z,25.55
2022-08-05T00:27:04.695Z,25.47
2022-08-05T00:28:04.389Z,25.40
2022-08-05T00:29:03.386Z,25.36
2022-08-05T00:30:35.293Z,25.32
2022-08-05T00:31:04.619Z,25.18
2022-08-05T00:32:13.476Z,25.20
2022-08-05T00:33:04.339Z,25.27
2022-08-05T00:34:53.953Z,25.24
2022-08-05T00:35:07.621Z,25.32
2022-08-05T00:36:15.072Z,25.30
2022-08-05T00:37:09.928Z,25.32
2022-08-05T00:38:04.284Z,25.27
2022-08-05T00:39:04.335Z,25.30
2022-08-05T00:40:03.298Z,25.24
2022-08-05T00:41:03.277Z,25.28
2022-08-05T00:42:03.274Z,25.24
2022-08-05T00:43:07.420Z,25.21
2022-08-05T00:44:03.243Z,25.20
2022-08-05T00:45:03.214Z,25.23
2022-08-05T00:46:03.220Z,25.20
2022-08-05T00:47:04.144Z,25.20
2022-08-05T00:48:05.574Z,25.23
2022-08-05T00:49:03.182Z,25.08
2022-08-05T00:50:03.178Z,25.08
2022-08-05T00:51:08.785Z,24.93
2022-08-05T00:52:04.180Z,24.91
2022-08-05T00:53:03.142Z,24.85
2022-08-05T00:54:04.142Z,24.99
2022-08-05T00:55:03.130Z,24.88
2022-08-05T00:56:03.121Z,24.95
2022-08-05T00:57:03.121Z,25.05
2022-08-05T00:58:03.088Z,25.03
2022-08-05T00:59:03.093Z,25.02
2022-08-05T01:00:03.075Z,25.14
2022-08-05T01:01:03.140Z,25.00
2022-08-05T01:02:03.049Z,25.03
2022-08-05T01:03:03.060Z,25.05
2022-08-05T01:04:03.030Z,25.05
2022-08-05T01:05:03.022Z,24.91
2022-08-05T01:06:05.363Z,24.93
2022-08-05T01:07:05.173Z,24.88
2022-08-05T01:08:41.504Z,24.93
2022-08-05T01:09:03.977Z,24.83
2022-08-05T01:10:02.982Z,24.95
2022-08-05T01:11:03.989Z,25.03
2022-08-05T01:12:18.108Z,24.85
2022-08-05T01:13:12.852Z,24.93
2022-08-05T01:14:03.940Z,24.91
2022-08-05T01:15:04.065Z,24.71
2022-08-05T01:16:02.950Z,24.68
2022-08-05T01:17:02.911Z,24.71
2022-08-05T01:18:02.895Z,24.84
2022-08-05T01:19:02.921Z,24.77
2022-08-05T01:20:03.707Z,24.76
2022-08-05T01:21:03.896Z,24.73
2022-08-05T01:22:03.854Z,24.64
2022-08-05T01:23:14.399Z,24.57
2022-08-05T01:24:14.155Z,24.53
2022-08-05T01:25:04.491Z,24.57
2022-08-05T01:26:02.816Z,24.60
2022-08-05T01:27:17.635Z,24.57
2022-08-05T01:28:03.787Z,24.61
2022-08-05T01:29:05.100Z,24.61
2022-08-05T01:30:02.776Z,24.57
2022-08-05T01:31:02.975Z,24.58
2022-08-05T01:32:02.812Z,24.73
2022-08-05T01:33:02.746Z,24.58
2022-08-05T01:34:02.748Z,24.55
2022-08-05T01:35:02.731Z,24.60
2022-08-05T01:36:03.719Z,24.65
2022-08-05T01:37:02.733Z,24.57
2022-08-05T01:38:02.699Z,24.47
2022-08-05T01:39:02.834Z,24.32
2022-08-05T01:40:02.743Z,24.47
2022-08-05T01:41:02.665Z,24.34
2022-08-05T01:42:02.670Z,24.30
2022-08-05T01:43:02.670Z,24.25
2022-08-05T01:44:02.809Z,24.37
2022-08-05T01:45:03.238Z,24.40
2022-08-05T01:46:07.423Z,24.37
2022-08-05T01:47:05.226Z,24.34
2022-08-05T01:48:02.593Z,24.32
2022-08-05T01:49:02.609Z,24.34
2022-08-05T01:50:03.605Z,24.30
2022-08-05T01:51:12.054Z,24.21
2022-08-05T01:52:17.448Z,24.20
2022-08-05T01:53:03.890Z,24.12
2022-08-05T01:54:02.540Z,24.20
2022-08-05T01:55:02.533Z,24.00
2022-08-05T01:56:04.323Z,23.97
2022-08-05T01:58:10.552Z,23.95
2022-08-05T01:58:12.657Z,23.88
2022-08-05T01:59:03.492Z,23.84
2022-08-05T02:00:02.490Z,23.83
2022-08-05T02:01:02.486Z,23.88
2022-08-05T02:02:02.508Z,23.70
2022-08-05T02:03:03.673Z,23.73
2022-08-05T02:04:02.439Z,23.76
2022-08-05T02:05:03.234Z,23.78
2022-08-05T02:06:03.560Z,23.70
2022-08-05T02:07:03.581Z,23.65
2022-08-05T02:08:02.445Z,23.65
2022-08-05T02:09:02.394Z,23.57
2022-08-05T02:10:02.405Z,23.58
2022-08-05T02:11:02.395Z,23.58
2022-08-05T02:12:02.370Z,23.58
2022-08-05T02:13:02.375Z,23.54
2022-08-05T02:14:02.373Z,23.50
2022-08-05T02:15:03.082Z,23.58
2022-08-05T02:16:02.321Z,23.60
2022-08-05T02:17:02.341Z,23.58
2022-08-05T02:18:32.276Z,23.65
2022-08-05T02:19:07.225Z,23.63
2022-08-05T02:20:02.290Z,23.69
2022-08-05T02:21:02.269Z,23.75
2022-08-05T02:22:02.312Z,23.80
2022-08-05T02:23:02.257Z,23.70
2022-08-05T02:24:02.257Z,23.73
2022-08-05T02:25:02.269Z,23.69
2022-08-05T02:26:02.228Z,23.60
2022-08-05T02:27:09.913Z,23.54
2022-08-05T02:28:08.670Z,23.54
2022-08-05T02:29:04.022Z,23.60
2022-08-05T02:30:02.191Z,23.51
2022-08-05T02:31:02.196Z,23.42
2022-08-05T02:32:04.728Z,23.31
2022-08-05T02:33:02.159Z,23.10
2022-08-05T02:34:02.151Z,22.75
2022-08-05T02:35:13.570Z,22.64
2022-08-05T02:36:03.134Z,22.46
2022-08-05T02:37:02.151Z,22.27
2022-08-05T02:38:02.278Z,22.06
2022-08-05T02:39:02.245Z,21.94
2022-08-05T02:40:02.101Z,21.88
2022-08-05T02:41:14.502Z,21.75
2022-08-05T02:42:03.095Z,21.71
2022-08-05T02:43:02.072Z,21.69
2022-08-05T02:44:06.965Z,21.54
2022-08-05T02:45:02.047Z,21.50
2022-08-05T02:46:02.039Z,21.29
2022-08-05T02:47:02.074Z,21.37
2022-08-05T02:48:11.828Z,21.29
2022-08-05T02:49:03.006Z,21.34
2022-08-05T02:50:01.998Z,21.17
2022-08-05T02:51:02.023Z,21.22
2022-08-05T02:52:03.665Z,21.14
2022-08-05T02:53:01.969Z,21.13
2022-08-05T02:54:03.965Z,20.98
2022-08-05T02:55:05.541Z,20.92
2022-08-05T02:56:02.062Z,21.01
2022-08-05T02:57:01.928Z,20.94
2022-08-05T02:58:11.988Z,20.98
2022-08-05T02:59:02.911Z,20.99
2022-08-05T03:00:01.907Z,20.89
2022-08-05T03:01:02.280Z,20.88
2022-08-05T03:02:01.954Z,21.01
2022-08-05T03:03:01.869Z,20.77
2022-08-05T03:04:12.102Z,20.77
2022-08-05T03:05:02.961Z,20.76
2022-08-05T03:06:54.541Z,20.66
2022-08-05T03:07:02.853Z,20.64
2022-08-05T03:08:06.796Z,20.73
2022-08-05T03:09:03.810Z,20.73
2022-08-05T03:10:02.147Z,20.67
2022-08-05T03:11:55.114Z,20.74
2022-08-05T03:12:02.804Z,20.77
2022-08-05T03:13:52.019Z,20.95
2022-08-05T03:14:48.154Z,20.97
2022-08-05T03:15:48.181Z,20.95
2022-08-05T03:16:48.148Z,20.92
2022-08-05T03:17:48.143Z,20.87
2022-08-05T03:18:49.131Z,20.91
2022-08-05T03:19:48.134Z,20.88
2022-08-05T03:20:48.970Z,20.91
2022-08-05T03:21:49.364Z,20.92
2022-08-05T03:22:50.021Z,20.97
2022-08-05T03:23:48.088Z,20.92
2022-08-05T03:24:50.753Z,20.84
2022-08-05T03:26:04.321Z,20.87
2022-08-05T03:26:49.453Z,20.88
2022-08-05T03:27:58.973Z,20.92
2022-08-05T03:28:49.034Z,20.91
2022-08-05T03:30:07.505Z,20.85
2022-08-05T03:30:49.001Z,20.84
2022-08-05T03:31:57.294Z,20.91
2022-08-05T03:32:48.979Z,20.89
2022-08-05T03:33:52.760Z,20.84
2022-08-05T03:34:51.047Z,20.92
2022-08-05T03:35:47.955Z,20.87
2022-08-05T03:36:47.948Z,20.94
2022-08-05T03:37:47.960Z,20.87
2022-08-05T03:38:52.545Z,20.92
2022-08-05T03:40:00.971Z,20.92
2022-08-05T03:40:49.001Z,20.91
2022-08-05T03:41:47.881Z,20.95
2022-08-05T03:42:51.687Z,20.88
2022-08-05T03:44:10.043Z,20.95
2022-08-05T03:44:48.876Z,20.91
2022-08-05T03:45:57.254Z,20.97
2022-08-05T03:46:47.883Z,20.94
2022-08-05T03:47:47.857Z,20.77
2022-08-05T03:48:47.834Z,20.73
2022-08-05T03:49:51.375Z,20.76
2022-08-05T03:50:47.806Z,20.77
2022-08-05T03:52:36.555Z,20.82
2022-08-05T03:55:50.833Z,20.98
2022-08-05T03:55:52.188Z,20.99
2022-08-05T03:55:53.788Z,20.92
2022-08-05T03:56:04.360Z,21.14
2022-08-05T03:56:50.043Z,21.16
2022-08-05T03:57:48.068Z,21.22
2022-08-05T03:58:47.726Z,21.17
2022-08-05T03:59:54.900Z,21.40
2022-08-05T04:00:51.364Z,21.50
2022-08-05T04:01:47.735Z,21.53
2022-08-05T04:02:51.976Z,21.62
2022-08-05T04:04:09.098Z,21.58
2022-08-05T04:04:48.696Z,21.65
2022-08-05T04:05:47.656Z,21.67
2022-08-05T04:06:51.356Z,21.53
2022-08-05T04:07:57.232Z,21.64
2022-08-05T04:08:48.676Z,21.49
2022-08-05T04:09:53.019Z,21.54
2022-08-05T04:10:48.619Z,21.69
2022-08-05T04:11:52.324Z,21.52
2022-08-05T04:12:47.605Z,21.61
2022-08-05T04:13:49.692Z,21.71
2022-08-05T04:14:47.587Z,21.56
2022-08-05T04:16:02.936Z,21.67
2022-08-05T04:16:48.576Z,21.59
2022-08-05T04:17:56.307Z,21.61
2022-08-05T04:18:48.539Z,21.58
2022-08-05T04:19:54.536Z,21.64
2022-08-05T04:20:48.523Z,21.65
2022-08-05T04:22:09.086Z,21.65
2022-08-05T04:22:48.501Z,21.67
2022-08-05T04:24:05.185Z,21.64
2022-08-05T04:24:52.932Z,21.72
2022-08-05T04:26:00.399Z,21.58
2022-08-05T04:26:48.451Z,21.68
2022-08-05T04:27:56.840Z,21.61
2022-08-05T04:28:51.210Z,21.58
2022-08-05T04:29:47.418Z,21.61
2022-08-05T04:30:48.010Z,21.54
2022-08-05T04:31:48.516Z,21.62
2022-08-05T04:32:47.430Z,21.62
2022-08-05T04:34:19.082Z,21.65
2022-08-05T04:34:48.368Z,21.50
2022-08-05T04:36:16.715Z,21.54
2022-08-05T04:36:50.231Z,21.67
2022-08-05T04:38:01.124Z,21.52
2022-08-05T04:38:50.958Z,21.54
2022-08-05T04:39:52.910Z,21.47
2022-08-05T04:40:50.621Z,21.54
2022-08-05T04:41:48.237Z,21.58
2022-08-05T04:42:47.344Z,21.50
2022-08-05T04:43:51.987Z,21.53
2022-08-05T04:44:48.279Z,21.50
2022-08-05T04:45:48.878Z,21.52
2022-08-05T04:46:47.249Z,21.59
2022-08-05T04:47:47.375Z,21.50
2022-08-05T04:48:47.260Z,21.56
2022-08-05T04:50:02.907Z,21.50
2022-08-05T04:51:02.887Z,21.49
2022-08-05T04:51:48.200Z,21.67
2022-08-05T04:52:47.206Z,21.58
2022-08-05T04:53:47.198Z,21.58
2022-08-05T04:54:47.190Z,21.58
2022-08-05T04:56:15.345Z,21.68
2022-08-05T04:56:48.170Z,21.67
2022-08-05T04:57:47.684Z,21.68
2022-08-05T04:58:48.128Z,21.67
2022-08-05T04:59:48.025Z,21.68
2022-08-05T05:00:47.164Z,21.67
2022-08-05T05:02:07.816Z,21.72
2022-08-05T05:02:48.109Z,21.69
2022-08-05T05:03:47.094Z,21.79
2022-08-05T05:04:49.909Z,21.83
2022-08-05T05:06:39.292Z,21.82
2022-08-05T05:06:49.280Z,21.88
2022-08-05T05:07:56.053Z,21.82
2022-08-05T05:08:49.923Z,21.77
2022-08-05T05:09:47.028Z,21.90
2022-08-05T05:10:55.848Z,21.88
2022-08-05T05:11:53.041Z,21.91
2022-08-05T05:12:48.008Z,21.98
2022-08-05T05:13:46.976Z,21.77
2022-08-05T05:14:50.635Z,21.84
2022-08-05T05:15:57.577Z,21.90
2022-08-05T05:16:47.984Z,21.84
2022-08-05T05:17:56.511Z,21.74
2022-08-05T05:19:02.739Z,21.88
2022-08-05T05:19:47.929Z,21.88
2022-08-05T05:20:46.927Z,21.92
2022-08-05T05:21:46.893Z,21.91
2022-08-05T05:22:46.914Z,21.80
2022-08-05T05:24:04.075Z,21.84
2022-08-05T05:24:56.822Z,21.83
2022-08-05T05:25:47.953Z,21.75
2022-08-05T05:26:46.854Z,21.58
2022-08-05T05:27:48.758Z,21.61
2022-08-05T05:28:47.861Z,21.71
2022-08-05T05:30:04.847Z,21.77
2022-08-05T05:30:49.729Z,21.71
2022-08-05T05:31:46.794Z,21.77
2022-08-05T05:32:46.807Z,21.77
2022-08-05T05:33:59.182Z,21.83
2022-08-05T05:34:47.766Z,21.83
2022-08-05T05:35:47.379Z,21.86
2022-08-05T05:36:47.189Z,21.98
2022-08-05T05:37:59.954Z,21.91
2022-08-05T05:38:47.770Z,21.86
2022-08-05T05:39:46.729Z,21.83
2022-08-05T05:40:50.099Z,21.72
2022-08-05T05:41:54.083Z,21.64
2022-08-05T05:42:48.680Z,21.49
2022-08-05T05:43:57.450Z,21.38
2022-08-05T05:44:47.695Z,21.42
2022-08-05T05:45:48.425Z,21.27
2022-08-05T05:46:46.654Z,21.28
2022-08-05T05:48:06.501Z,21.43
2022-08-05T05:48:47.778Z,21.35
2022-08-05T05:49:46.615Z,21.49
2022-08-05T05:50:47.664Z,21.56
2022-08-05T05:51:49.997Z,21.69
2022-08-05T05:52:46.677Z,21.68
2022-08-05T05:53:57.996Z,21.62
2022-08-05T05:54:50.920Z,21.79
2022-08-05T05:55:51.571Z,21.83
2022-08-05T05:56:47.587Z,21.83
2022-08-05T05:57:52.691Z,21.90
2022-08-05T05:58:46.523Z,21.91
2022-08-05T05:59:46.508Z,21.86
2022-08-05T06:00:46.594Z,21.67
2022-08-05T06:01:57.534Z,21.68
2022-08-05T06:02:47.481Z,21.65
2022-08-05T06:04:00.648Z,21.47
2022-08-05T06:04:49.168Z,21.44
2022-08-05T06:05:46.458Z,21.38
2022-08-05T06:06:49.149Z,21.27
2022-08-05T06:08:01.378Z,21.19
2022-08-05T06:08:49.220Z,21.21
2022-08-05T06:10:00.084Z,21.12
2022-08-05T06:10:52.642Z,21.07
2022-08-05T06:11:59.645Z,21.14
2022-08-05T06:12:47.387Z,21.22
2022-08-05T06:13:53.632Z,21.42
2022-08-05T06:14:46.367Z,21.49
2022-08-05T06:16:31.066Z,21.62
2022-08-05T06:16:47.349Z,21.67
2022-08-05T06:17:52.950Z,21.79
2022-08-05T06:18:46.340Z,21.84
2022-08-05T06:19:57.015Z,21.90
2022-08-05T06:20:47.874Z,22.09
2022-08-05T06:21:49.933Z,21.96
2022-08-05T06:22:47.313Z,21.99
2022-08-05T06:23:46.294Z,22.03
2022-08-05T06:24:48.269Z,22.15
2022-08-05T06:26:12.763Z,22.28
2022-08-05T06:26:52.361Z,22.40
2022-08-05T06:28:11.537Z,22.45
2022-08-05T06:28:46.231Z,22.42
2022-08-05T06:30:57.373Z,22.37
2022-08-05T06:31:57.403Z,22.28
2022-08-05T06:32:57.373Z,22.25
2022-08-05T06:34:06.289Z,22.21
2022-08-05T06:34:57.389Z,22.15
2022-08-05T06:36:07.748Z,22.21
2022-08-05T06:36:58.855Z,22.18
2022-08-05T06:37:59.554Z,22.20
2022-08-05T06:38:58.471Z,22.24
2022-08-05T06:39:58.416Z,22.30
2022-08-05T06:40:58.415Z,22.51
2022-08-05T06:41:58.891Z,22.70
2022-08-05T06:42:58.395Z,22.72
2022-08-05T06:44:00.634Z,22.88
2022-08-05T06:44:58.369Z,23.04
2022-08-05T06:46:04.083Z,23.28
2022-08-05T06:46:59.372Z,23.36
2022-08-05T06:48:44.358Z,23.69
2022-08-05T06:48:59.250Z,24.90
2022-08-05T06:50:00.807Z,25.47
2022-08-05T06:50:58.326Z,26.12
2022-08-05T06:51:58.306Z,26.54
2022-08-05T06:52:58.762Z,27.09
2022-08-05T06:53:59.300Z,27.13
2022-08-05T06:54:58.288Z,28.24
2022-08-05T06:55:58.277Z,29.31
2022-08-05T06:57:58.043Z,29.05
2022-08-05T06:58:11.660Z,28.34
2022-08-05T06:58:58.256Z,27.79
2022-08-05T06:59:58.399Z,27.34
2022-08-05T07:00:59.291Z,26.87
2022-08-05T07:01:58.208Z,26.70
2022-08-05T07:02:58.201Z,26.88
2022-08-05T07:03:58.195Z,26.97
2022-08-05T07:04:58.206Z,27.28
2022-08-05T07:05:58.183Z,28.48
2022-08-05T07:06:58.218Z,28.93
2022-08-05T07:07:58.165Z,29.70
2022-08-05T07:08:59.044Z,30.35
2022-08-05T07:09:58.576Z,31.29
2022-08-05T07:10:58.134Z,31.65
2022-08-05T07:12:00.489Z,30.57
2022-08-05T07:12:58.115Z,29.73
2022-08-05T07:13:59.735Z,29.04
2022-08-05T07:14:58.112Z,28.67
2022-08-05T07:16:01.623Z,28.15
2022-08-05T07:17:56.580Z,27.81
2022-08-05T07:18:08.303Z,27.17
2022-08-05T07:19:00.071Z,26.63
2022-08-05T07:20:31.277Z,26.26
2022-08-05T07:21:04.849Z,25.95
2022-08-05T07:22:00.479Z,25.65
2022-08-05T07:22:58.021Z,25.50
2022-08-05T07:23:58.022Z,25.42
2022-08-05T07:24:58.024Z,25.54
2022-08-05T07:25:57.996Z,25.51
2022-08-05T07:26:58.002Z,25.30
2022-08-05T07:28:03.932Z,25.36
2022-08-05T07:28:59.960Z,25.47
2022-08-05T07:30:24.043Z,25.47
2022-08-05T07:30:58.946Z,25.50
2022-08-05T07:31:57.930Z,25.33
2022-08-05T07:32:57.997Z,25.28
2022-08-05T07:33:59.839Z,25.13
2022-08-05T07:34:58.691Z,24.90
2022-08-05T07:36:19.356Z,24.69
2022-08-05T07:36:58.882Z,24.55
2022-08-05T07:37:57.901Z,24.35
2022-08-05T07:38:57.887Z,24.35
2022-08-05T07:40:27.027Z,24.32
2022-08-05T07:41:00.399Z,24.34
2022-08-05T07:42:14.609Z,24.40
2022-08-05T07:42:58.858Z,24.45
2022-08-05T07:43:57.826Z,24.43
2022-08-05T07:44:57.813Z,24.50
2022-08-05T07:45:58.741Z,24.62
2022-08-05T07:46:58.791Z,24.88
2022-08-05T07:47:57.788Z,24.93
2022-08-05T07:49:01.679Z,24.90
2022-08-05T07:49:58.765Z,24.77
2022-08-05T07:50:57.760Z,24.68
2022-08-05T07:51:57.763Z,24.57
2022-08-05T07:52:57.737Z,24.45
2022-08-05T07:53:57.742Z,24.35
2022-08-05T07:54:57.717Z,24.31
2022-08-05T07:56:06.412Z,24.03
2022-08-05T07:57:13.575Z,24.16
2022-08-05T07:58:03.171Z,24.22
2022-08-05T07:58:59.229Z,24.18
2022-08-05T07:59:57.687Z,24.22
2022-08-05T08:00:57.687Z,24.21
2022-08-05T08:01:58.011Z,24.32
2022-08-05T08:03:15.088Z,24.30
2022-08-05T08:03:58.628Z,24.31
2022-08-05T08:04:57.654Z,24.25
2022-08-05T08:05:57.605Z,24.28
2022-08-05T08:06:57.603Z,24.27
2022-08-05T08:08:00.256Z,24.27
2022-08-05T08:08:57.582Z,24.27
2022-08-05T08:09:57.574Z,24.16
2022-08-05T08:10:57.572Z,24.18
2022-08-05T08:12:00.095Z,24.18
2022-08-05T08:12:58.532Z,24.13
2022-08-05T08:14:00.775Z,24.02
2022-08-05T08:14:57.534Z,23.97
2022-08-05T08:16:34.569Z,24.03
2022-08-05T08:16:58.508Z,24.06
2022-08-05T08:17:57.524Z,24.08
2022-08-05T08:18:57.492Z,24.12
2022-08-05T08:20:21.994Z,24.25
2022-08-05T08:21:02.872Z,24.25
2022-08-05T08:21:58.470Z,24.31
2022-08-05T08:22:57.467Z,24.37
2022-08-05T08:24:03.843Z,24.62
2022-08-05T08:25:03.385Z,24.71
2022-08-05T08:26:00.698Z,24.80
2022-08-05T08:26:58.416Z,24.96
2022-08-05T08:27:57.410Z,24.91
2022-08-05T08:29:02.261Z,24.91
2022-08-05T08:30:04.021Z,25.03
2022-08-05T08:30:58.397Z,24.95
2022-08-05T08:31:57.366Z,25.08
2022-08-05T08:32:57.368Z,25.21
2022-08-05T08:33:57.399Z,25.39
2022-08-05T08:34:57.333Z,25.60
2022-08-05T08:36:18.399Z,25.67
2022-08-05T08:37:04.572Z,25.54
2022-08-05T08:37:59.311Z,25.38
2022-08-05T08:38:57.562Z,25.28
2022-08-05T08:39:57.345Z,25.15
2022-08-05T08:40:57.312Z,25.20
2022-08-05T08:41:59.964Z,25.20
2022-08-05T08:42:57.409Z,25.24
2022-08-05T08:45:18.193Z,25.14
2022-08-05T08:45:20.090Z,25.25
2022-08-05T08:45:58.261Z,25.25
2022-08-05T08:46:57.238Z,25.39
2022-08-05T08:48:06.805Z,25.32
2022-08-05T08:49:06.213Z,25.27
2022-08-05T08:50:22.509Z,25.43
2022-08-05T08:51:22.493Z,25.28
2022-08-05T08:52:03.820Z,25.21
2022-08-05T08:52:58.202Z,25.06
2022-08-05T08:53:57.166Z,25.08
2022-08-05T08:54:57.793Z,25.20
2022-08-05T08:56:02.813Z,25.18
2022-08-05T08:56:57.141Z,25.51
2022-08-05T08:57:57.958Z,25.55
2022-08-05T08:58:57.147Z,25.58
2022-08-05T08:59:57.097Z,25.80
2022-08-05T09:00:57.200Z,26.26
2022-08-05T09:02:01.135Z,26.33
2022-08-05T09:02:57.082Z,26.95
2022-08-05T09:03:58.322Z,27.70
2022-08-05T09:05:16.372Z,28.46
2022-08-05T09:06:08.881Z,29.15
2022-08-05T09:06:58.300Z,29.52
2022-08-05T09:07:59.052Z,29.76
2022-08-05T09:08:57.016Z,29.63
2022-08-05T09:09:57.056Z,29.51
2022-08-05T09:10:57.017Z,29.71
2022-08-05T09:12:02.259Z,29.80
2022-08-05T09:13:04.469Z,29.43
2022-08-05T09:14:09.570Z,28.66
2022-08-05T09:15:04.749Z,28.03
2022-08-05T09:15:56.964Z,27.55
2022-08-05T09:16:56.964Z,27.67
2022-08-05T09:17:56.961Z,27.66
2022-08-05T09:18:56.938Z,27.50
2022-08-05T09:20:02.927Z,27.40
2022-08-05T09:20:57.922Z,27.14
2022-08-05T09:22:22.226Z,27.02
2022-08-05T09:23:04.827Z,27.10
2022-08-05T09:24:02.092Z,27.09
2022-08-05T09:24:58.883Z,26.94
2022-08-05T09:26:00.091Z,27.00
2022-08-05T09:26:58.787Z,26.84
2022-08-05T09:28:04.599Z,27.00
2022-08-05T09:28:57.862Z,26.94
2022-08-05T09:29:56.832Z,27.00
2022-08-05T09:30:56.822Z,27.19
2022-08-05T09:32:40.407Z,26.94
2022-08-05T09:32:58.024Z,26.89
2022-08-05T09:33:56.816Z,26.91
2022-08-05T09:34:56.784Z,26.81
2022-08-05T09:35:56.774Z,26.75
2022-08-05T09:36:59.749Z,26.89
2022-08-05T09:38:12.808Z,26.94
2022-08-05T09:38:57.797Z,27.18
2022-08-05T09:39:56.823Z,27.19
2022-08-05T09:40:56.731Z,27.22
2022-08-05T09:41:56.737Z,27.12
2022-08-05T09:42:56.701Z,26.99
2022-08-05T09:43:56.700Z,26.89
2022-08-05T09:45:03.139Z,27.06
2022-08-05T09:46:06.225Z,27.41
2022-08-05T09:46:58.026Z,27.59
2022-08-05T09:47:57.441Z,27.75
2022-08-05T09:49:07.625Z,27.65
2022-08-05T09:50:01.973Z,27.41
2022-08-05T09:50:57.641Z,27.31
2022-08-05T09:51:56.653Z,27.19
2022-08-05T09:52:56.608Z,27.27
2022-08-05T09:53:59.143Z,27.32
2022-08-05T09:54:56.607Z,27.55
2022-08-05T09:56:04.808Z,27.97
2022-08-05T09:57:01.598Z,27.77
2022-08-05T09:57:58.646Z,27.85
2022-08-05T09:58:56.619Z,27.77
2022-08-05T09:59:56.554Z,27.65
2022-08-05T10:00:56.544Z,27.63
2022-08-05T10:01:58.402Z,27.43
2022-08-05T10:02:58.589Z,27.34
2022-08-05T10:03:59.545Z,27.12
2022-08-05T10:04:56.505Z,27.21
2022-08-05T10:05:56.525Z,27.39
2022-08-05T10:06:59.462Z,27.41
2022-08-05T10:08:36.660Z,27.69
2022-08-05T10:08:57.505Z,27.96
2022-08-05T10:10:04.335Z,28.02
2022-08-05T10:10:57.470Z,28.09
2022-08-05T10:11:56.444Z,28.15
2022-08-05T10:12:56.432Z,28.14
2022-08-05T10:13:56.464Z,28.22
2022-08-05T10:14:56.428Z,28.07
2022-08-05T10:15:56.426Z,27.81
2022-08-05T10:16:56.398Z,27.46
2022-08-05T10:17:56.751Z,27.62
2022-08-05T10:18:56.391Z,27.85
2022-08-05T10:20:04.208Z,28.02
2022-08-05T10:20:57.368Z,28.07
2022-08-05T10:21:56.346Z,28.00
2022-08-05T10:22:56.345Z,27.88
2022-08-05T10:24:00.406Z,27.69
2022-08-05T10:24:57.361Z,27.46
2022-08-05T10:25:56.328Z,27.29
2022-08-05T10:26:56.382Z,27.19
2022-08-05T10:28:13.705Z,27.29
2022-08-05T10:28:57.290Z,27.43
2022-08-05T10:30:07.195Z,27.46
2022-08-05T10:32:50.784Z,27.49
2022-08-05T10:32:55.166Z,27.44
2022-08-05T10:33:01.375Z,27.55
2022-08-05T10:33:57.245Z,27.46
2022-08-05T10:34:56.246Z,27.55
2022-08-05T10:35:59.740Z,27.59
2022-08-05T10:36:56.203Z,27.60
2022-08-05T10:37:56.208Z,27.74
2022-08-05T10:38:56.231Z,27.84
2022-08-05T10:40:03.865Z,27.96
2022-08-05T10:40:57.971Z,27.90
2022-08-05T10:42:00.548Z,27.96
2022-08-05T10:42:56.150Z,27.96
2022-08-05T10:43:56.161Z,28.11
2022-08-05T10:44:56.162Z,28.15
2022-08-05T10:45:56.133Z,28.21
2022-08-05T10:46:57.137Z,28.04
2022-08-05T10:48:30.327Z,27.82
2022-08-05T10:49:02.682Z,27.55
2022-08-05T10:50:20.258Z,27.50
2022-08-05T10:50:57.080Z,27.49
2022-08-05T10:52:00.119Z,27.57
2022-08-05T10:52:58.820Z,27.84
2022-08-05T10:53:56.055Z,27.99
2022-08-05T10:54:57.275Z,27.85
2022-08-05T10:56:05.287Z,27.87
2022-08-05T10:56:57.306Z,27.92
2022-08-05T10:57:56.019Z,27.60
2022-08-05T10:58:56.018Z,27.59
2022-08-05T11:00:01.790Z,27.49
2022-08-05T11:01:03.011Z,27.60
2022-08-05T11:02:05.261Z,27.75
2022-08-05T11:02:58.056Z,27.81
2022-08-05T11:03:55.997Z,27.69
2022-08-05T11:04:56.003Z,27.59
2022-08-05T11:05:55.962Z,27.51
2022-08-05T11:06:55.974Z,27.72
2022-08-05T11:08:02.618Z,27.81
2022-08-05T11:08:55.917Z,27.81
2022-08-05T11:10:03.679Z,27.78
2022-08-05T11:11:01.058Z,27.62
2022-08-05T11:11:55.921Z,27.62
2022-08-05T11:12:55.995Z,27.65
2022-08-05T11:13:58.309Z,27.63
2022-08-05T11:15:11.648Z,27.70
2022-08-05T11:16:00.961Z,27.85
2022-08-05T11:16:57.755Z,27.96
2022-08-05T11:17:57.083Z,27.94
2022-08-05T11:18:55.832Z,27.87
2022-08-05T11:20:10.612Z,28.03
2022-08-05T11:20:56.825Z,27.87
2022-08-05T11:21:55.793Z,27.70
2022-08-05T11:22:59.180Z,27.66
2022-08-05T11:24:05.500Z,27.79
2022-08-05T11:25:16.830Z,27.63
2022-08-05T11:26:04.711Z,27.93
2022-08-05T11:26:55.765Z,28.18
2022-08-05T11:28:00.800Z,28.41
2022-08-05T11:28:56.768Z,28.59
2022-08-05T11:29:55.738Z,28.93
2022-08-05T11:30:55.731Z,29.02
2022-08-05T11:32:00.050Z,29.00
2022-08-05T11:32:56.748Z,28.78
2022-08-05T11:33:55.829Z,28.85
2022-08-05T11:34:55.687Z,28.89
2022-08-05T11:36:07.521Z,28.88
2022-08-05T11:36:55.673Z,28.68
2022-08-05T11:38:30.136Z,28.52
2022-08-05T11:38:57.544Z,28.31
2022-08-05T11:40:02.859Z,28.29
2022-08-05T11:41:01.061Z,28.06
2022-08-05T11:42:04.240Z,28.12
2022-08-05T11:42:57.623Z,28.02
2022-08-05T11:44:04.320Z,28.00
2022-08-05T11:44:56.603Z,28.07
2022-08-05T11:46:14.948Z,28.17
2022-08-05T11:47:09.948Z,28.04
2022-08-05T11:47:56.580Z,27.99
2022-08-05T11:48:55.614Z,27.93
2022-08-05T11:49:55.574Z,28.04
2022-08-05T11:50:55.553Z,27.96
2022-08-05T11:51:57.296Z,27.93
2022-08-05T11:52:58.011Z,28.03
2022-08-05T11:53:56.512Z,28.18
2022-08-05T11:54:55.778Z,28.17
2022-08-05T11:55:55.495Z,28.30
2022-08-05T11:56:55.494Z,28.14
2022-08-05T11:58:09.615Z,28.21
2022-08-05T11:58:56.468Z,28.09
2022-08-05T11:59:55.462Z,27.97
2022-08-05T12:00:55.460Z,28.17
2022-08-05T12:01:55.458Z,28.39
2022-08-05T12:02:56.561Z,28.40
2022-08-05T12:03:55.838Z,28.36
2022-08-05T12:04:59.111Z,28.19
2022-08-05T12:05:55.414Z,28.33
2022-08-05T12:06:55.386Z,28.36
2022-08-05T12:08:08.341Z,28.43
2022-08-05T12:08:55.408Z,28.54
2022-08-05T12:09:55.378Z,28.44
2022-08-05T12:10:56.086Z,28.48
2022-08-05T12:11:55.364Z,28.54
2022-08-05T12:12:59.969Z,28.58
2022-08-05T12:13:55.355Z,28.55
2022-08-05T12:14:55.325Z,28.67
2022-08-05T12:15:55.850Z,28.78
2022-08-05T12:16:55.306Z,28.76
2022-08-05T12:18:03.694Z,28.68
2022-08-05T12:18:55.282Z,28.55
2022-08-05T12:20:16.671Z,28.48
2022-08-05T12:20:56.306Z,28.34
2022-08-05T12:21:55.260Z,28.34
2022-08-05T12:22:55.254Z,28.17
2022-08-05T12:23:55.254Z,27.94
2022-08-05T12:24:55.225Z,27.99
2022-08-05T12:25:56.895Z,27.92
2022-08-05T12:26:55.220Z,27.87
2022-08-05T12:27:55.195Z,27.88
2022-08-05T12:28:55.188Z,27.93
2022-08-05T12:29:56.961Z,28.00
2022-08-05T12:31:34.263Z,28.09
2022-08-05T12:31:55.466Z,28.15
2022-08-05T12:32:56.400Z,28.17
2022-08-05T12:33:55.209Z,28.24
2022-08-05T12:34:55.294Z,28.29
2022-08-05T12:35:55.199Z,28.36
2022-08-05T12:36:55.144Z,28.36
2022-08-05T12:37:55.615Z,28.43
2022-08-05T12:38:55.159Z,28.64
2022-08-05T12:39:55.169Z,28.68
2022-08-05T12:40:56.088Z,28.64
2022-08-05T12:41:58.028Z,28.52
2022-08-05T12:42:55.123Z,28.52
2022-08-05T12:43:55.059Z,28.74
2022-08-05T12:44:55.048Z,28.89
2022-08-05T12:45:55.044Z,28.77
2022-08-05T12:46:55.027Z,28.67
2022-08-05T12:48:01.408Z,28.40
2022-08-05T12:48:56.015Z,28.27
2022-08-05T12:50:03.508Z,28.21
2022-08-05T12:50:56.004Z,28.39
2022-08-05T12:52:14.006Z,28.29
2022-08-05T12:52:55.972Z,28.25
2022-08-05T12:53:55.887Z,28.06